Loisir ou Compétition : Rejoignez un Club de la Fédération

Résultats

COUPE D'ARGENT U12 TROPHEE CARRE NEIGE

AILLONS-MARGERIAZ 1400

SL Dames

Jury de Compétition

Délégué Technique :
MARIN LAMELLET THIBAULT (SA)
Arbitre :
JORCIN LAURENT (SA)
Assistant :
 
Dir. Epreuve :
REMANDET ROBERT (SA)

Caractéristiques de la Piste

Piste :
LE LAPIAZ
Départ :
1710
Arrivée :
1610
Dénivelé :
100
Homologation :
3098/02/14

Manche 1

Nombre de Portes :
40
Heure de Départ :
10H15
Traceur :
DEMUER SABRINA (SA)
Ouvreurs A :
TOURNIAIRE DAVID (SA)
Ouvreurs B :
 
Ouvreurs C :
 
Ouvreurs D :
 
Ouvreurs E :
 
Temps :
COUVERT
Neige :
DURE

Manche 2

Nombre de Portes :
41
Heure de Départ :
12H15
Traceur :
DELAHAYE CLEMENT (SA)
Ouvreurs A :
TOURNIAIRE DAVID (SA)
Ouvreurs B :
 
Ouvreurs C :
 
Ouvreurs D :
 
Ouvreurs E :
 
Température Départ :
-5
Température Arrivée :
-4

Pénalité Appliquée :
180.0000

Catégorie :
U12
Clt Dos Clt/Cat Code An Nom Prénom Com Club Tps M1 Tps M2 Tps Tot Pts
Classés
1 37 1/U12 FFS2673396 2006 BLANC LOLA SA CS TIGNES 33.93 36.06 1:09.99 180.00
2 47 2/U12 FFS2665478 2006 DAME MARTEL ENORA SA CS VAL CENIS 33.64 36.61 1:10.25 182.67
3 74 3/U12 FFS2665531 2006 BURDIN LAURINE SA CS VAL CENIS 34.55 36.66 1:11.21 192.55
4 105 4/U12 FFS2667057 2006 ANSELME MARTIN KELLY SA SC ARECHES 35.12 36.26 1:11.38 194.30
5 79 5/U12 FFS2671469 2006 CANCHON MORGANE SA SC PRALOGNAN 34.69 37.23 1:11.92 199.85
6 108 6/U12 FFS2663694 2006 OUVRIER SARAH SA CREST VOLAND 35.72 36.30 1:12.02 200.88
7 65 7/U12 FFS2679350 2006 BOIS CORENTINE SA ST FRANCOIS 35.95 36.37 1:12.32 203.97
8 42 8/U12 FFS2675330 2006 ACQUISTAPACE FIONA SA SC CHAMBERY 35.37 37.21 1:12.58 206.64
9 59 9/U12 FFS2666975 2006 BAZILE LYDIE SA VAL D'ISERE 34.96 37.71 1:12.67 207.57
10 24 10/U12 FFS2666690 2006 BOIS FLORINE SA CS VAL CENIS 34.89 38.49 1:13.38 214.87
11 26 11/U12 FFS2667060 2006 BLANC MANUELLE SA SC ARECHES 35.05 38.35 1:13.40 215.08
12 33 12/U12 FFS2674395 2006 ASTIER LOLA SA CS LA PLAGNE 35.53 38.05 1:13.58 216.93
13 49 13/U12 FFS2673775 2006 QUEZEL AMBRUNAZ LEA SA CS TOUSSUIRE 35.53 38.54 1:14.07 221.97
14 62 14/U12 FFS2667083 2006 MONIER CHLOE SA CO VAL THO 36.52 37.69 1:14.21 223.41
15 50 15/U12 FFS2677123 2006 TODESCHINI CELIA SA SC CHAMPAGNY 36.00 38.28 1:14.28 224.13
16 76 16/U12 FFS2678860 2007 PERRIN ALINE SA SC MENUIRES 36.18 38.17 1:14.35 224.85
17 103 17/U12 FFS2665503 2006 MAHER ROSIE SA COURCHEVEL 36.88 37.53 1:14.41 225.47
18 19 18/U12 FFS2674926 2006 OZANNE COLINE SA AS AUSSOIS 35.63 38.87 1:14.50 226.40
19 67 19/U12 FFS2671471 2006 CANCHON MAE SA SC PRALOGNAN 36.52 38.40 1:14.92 230.72
20 25 20/U12 FFS2667365 2006 RYCX MINA SA STE FOY TSE 36.06 38.89 1:14.95 231.02
20 52 20/U12 FFS2671044 2006 DOSSIER GOSSAY ANGIE SA SC CHAMBERY 36.66 38.29 1:14.95 231.02
22 95 22/U12 FFS2670126 2006 TOURNIAIRE LOLA SA SC CHAMBERY 36.24 38.87 1:15.11 232.67
23 45 23/U12 FFS2671999 2006 MOLLIET PRUNE SA SC ARECHES 35.98 39.40 1:15.38 235.45
24 14 24/U12 FFS2674942 2006 CURDY LEONTINE SA CS LA PLAGNE 36.95 38.46 1:15.41 235.76
25 48 25/U12 FFS2667077 2006 UROS LOLA SA CO VAL THO 36.09 39.43 1:15.52 236.89
26 53 26/U12 FFS2670965 2007 MURTAGH LARA SA COURCHEVEL 36.52 39.43 1:15.95 241.31
26 94 26/U12 FFS2682812 2006 COULAUD ANAIS SA SC GIETTAZ 37.51 38.44 1:15.95 241.31
28 57 28/U12 FFS2672704 2007 ANCENAY LILOU SA ND BELLECOMB 37.16 39.31 1:16.47 246.66
29 8 29/U12 FFS2672117 2006 BORNAND PAULINE SA SC MENUIRES 36.72 39.92 1:16.64 248.41
30 96 30/U12 FFS2672514 2007 RIVET LILA SA VAL D'ISERE 37.80 38.91 1:16.71 249.13
31 22 31/U12 FFS2667370 2006 CROOKS LOLA SA STE FOY TSE 37.58 39.81 1:17.39 256.13
32 39 32/U12 FFS2676382 2007 SKABAR BESSIE SA SC MERIBEL 37.37 40.18 1:17.55 257.77
33 66 33/U12 FFS2666982 2006 CLAIR LANA SA VAL D'ISERE 37.81 40.10 1:17.91 261.47
34 84 34/U12 FFS2677566 2007 DOMPNIER LAURA SA CS TOUSSUIRE 38.03 40.00 1:18.03 262.71
35 4 35/U12 FFS2690148 2007 MATHIEU LOUANE SA SC MENUIRES 37.47 40.58 1:18.05 262.91
35 107 35/U12 FFS2671356 2006 CHEDAL JULIE SA SC LA TANIA 39.60 38.45 1:18.05 262.91
37 63 37/U12 FFS2668850 2006 CLEMENT ASTRID SA VAL D'ISERE 38.44 39.64 1:18.08 263.22
38 100 38/U12 FFS2665504 2006 CHEDAL ELSA SA COURCHEVEL 38.57 39.52 1:18.09 263.33
39 92 39/U12 FFS2670495 2007 BOROT ANGELE SA CS VAL CENIS 38.51 39.76 1:18.27 265.18
40 54 40/U12 FFS2686643 2006 PAGLIANO JEANNE SA CS VALMOREL 38.30 40.03 1:18.33 265.80
41 88 41/U12 FFS2679114 2006 BLANC LILI SA SC BONNEVAL 37.96 40.46 1:18.42 266.72
42 110 42/U12 FFS2672222 2007 PARKER SWIFT INDIA SA STE FOY TSE 38.31 40.25 1:18.56 268.16
43 87 43/U12 FFS2672681 2007 BAFFERT ROMY SA SC AILLONS 37.74 41.16 1:18.90 271.66
44 18 44/U12 FFS2671311 2006 FONFREDE AUGUSTINE SA CS VALMOREL 38.12 40.79 1:18.91 271.76
45 58 45/U12 FFS2671851 2006 PIATEK ANAIS SA CS LA FECLAZ 39.12 39.99 1:19.11 273.82
46 7 46/U12 FFS2667369 2006 CROOKS BEATRICE SA STE FOY TSE 37.84 41.53 1:19.37 276.49
47 27 47/U12 FFS2675900 2007 BOUVARD LEANIE SA SC VALLOIRE 38.93 40.55 1:19.48 277.63
48 69 48/U12 FFS2665502 2006 LALANNE HEIDI SA COURCHEVEL 37.48 42.05 1:19.53 278.14
49 3 49/U12 FFS2673833 2007 HOUHOU DUNAND AMANDINE SA COURCHEVEL 38.72 40.88 1:19.60 278.86
50 91 50/U12 FFS2673052 2006 RANSOU CHLOE SA SC MENUIRES 39.03 40.86 1:19.89 281.84
51 61 51/U12 FFS2672733 2007 CHALAMEL LOIS SA SC AILLONS 39.19 40.75 1:19.94 282.36
52 104 52/U12 FFS2669593 2006 NORAZ LISE SA SC VALMEINIE 39.02 41.15 1:20.17 284.72
53 35 53/U12 FFS2678763 2006 MINGUET LOU SA ST FRANCOIS 39.28 41.03 1:20.31 286.16
54 31 54/U12 FFS2677300 2007 HAUTECOEUR BLEUENN SA SC MERIBEL 38.99 41.33 1:20.32 286.27
55 29 55/U12 FFS2672611 2007 CORCORAL LOUPITA SA AS AUSSOIS 38.92 41.46 1:20.38 286.88
56 41 56/U12 FFS2673395 2006 LAPLACE JADE SA CS TIGNES 38.58 41.96 1:20.54 288.53
57 6 57/U12 FFS2676534 2006 SEBAN LOUMIA SA CS ALBIEZ 39.87 41.02 1:20.89 292.13
58 64 58/U12 FFS2671530 2006 SEGURA RUBIS SA SC AILLONS 39.06 41.86 1:20.92 292.44
59 44 59/U12 FFS2670320 2006 VEILLET NATACHA SA SC MERIBEL 39.28 41.66 1:20.94 292.64
60 82 60/U12 FFS2672874 2007 AVENEL MARYLOU SA SC CHAMPAGNY 40.73 40.43 1:21.16 294.91
61 13 61/U12 FFS2670920 2007 CRAFFE MAELYS SA CS VAL CENIS 40.53 40.67 1:21.20 295.32
62 71 62/U12 FFS2666987 2006 HUMBERT JULIE SA VAL D'ISERE 38.93 42.34 1:21.27 296.04
63 78 63/U12 FFS2671884 2006 DUBOIS CLARA SA SC ROCHETTE 39.63 41.97 1:21.60 299.43
64 28 64/U12 FFS2676587 2007 PURDY CORAL SA SC MERIBEL 39.39 42.31 1:21.70 300.46
65 81 65/U12 FFS2673120 2007 SABANOVA OKSANA SA COURCHEVEL 39.91 42.05 1:21.96 303.14
65 93 65/U12 FFS2671505 2007 GRAVIER ANAIS SA CS VAL CENIS 40.11 41.85 1:21.96 303.14
67 80 67/U12 FFS2675635 2006 PONCET PERLE SA SC MONTALBER 40.38 41.83 1:22.21 305.71
68 102 68/U12 FFS2675603 2007 SIRAND REY TESS SA SC MERIBEL 40.60 41.91 1:22.51 308.80
69 83 69/U12 FFS2685182 2007 RIDGWAY INDIA SA VAL D'ISERE 41.37 41.15 1:22.52 308.90
70 97 70/U12 FFS2671480 2007 PRIKRYL IVONA SA CO VAL THO 40.91 41.76 1:22.67 310.44
71 20 71/U12 FFS2672013 2007 COLLINET CLEMENTINE SA SC ARECHES 40.51 42.38 1:22.89 312.70
72 32 72/U12 FFS2673108 2007 BRUN OLIVIA SA CREST VOLAND 40.68 42.44 1:23.12 315.07
73 43 73/U12 FFS2676541 2007 CANNONI MALIA SA CS ALBIEZ 40.97 42.16 1:23.13 315.17
74 38 74/U12 FFS2674557 2006 VIONNET CHLOE SA CS LA PLAGNE 41.01 42.77 1:23.78 321.86
75 40 75/U12 FFS2672817 2007 MARIN LAMELLET ZELIE SA CREST VOLAND 41.84 42.46 1:24.30 327.21
76 5 76/U12 FFS2682155 2007 BROWN RUBY SA VILLAROGER 41.75 43.14 1:24.89 333.28
77 98 77/U12 FFS2679781 2007 VORGER CAMILLE SA CS VALMOREL 42.13 43.51 1:25.64 340.99
78 10 78/U12 FFS2679795 2007 BARON ELSA SA SC CHAMBERY 42.16 44.73 1:26.89 353.85
79 30 79/U12 FFS2667921 2006 REY LAETITIA SA SC FLUMET 42.38 44.70 1:27.08 355.81
80 15 80/U12 FFS2671803 2007 LACREUSE INES SA CS SAISIES 43.15 43.98 1:27.13 356.32
81 21 81/U12 FFS2673366 2007 BARRAL CREPIEUX CLAIRE SA ND BELLECOMB 42.70 44.99 1:27.69 362.08
82 9 82/U12 FFS2672445 2007 DEBROUX MEI SA ALBERTVILLE 42.11 45.73 1:27.84 363.63
83 60 83/U12 FFS2675063 2007 BOUSQUET ORIANE SA SC ROCHETTE 42.30 45.70 1:28.00 365.27
84 17 84/U12 FFS2673107 2007 BRUN LENA SA CREST VOLAND 45.20 43.86 1:29.06 376.18
85 34 85/U12 FFS2680017 2007 DUBRUL ROMANE SA CS LA PLAGNE 44.50 46.04 1:30.54 391.40
86 106 86/U12 FFS2671879 2007 SEGURA VANILLE SA SC AILLONS 45.37 46.14 1:31.51 401.38
87 77 87/U12 FFS2680309 2007 THOMAS ANOUK SA CS VAL CENIS 52.38 40.26 1:32.64 413.00
Abandons
16 FFS2674427 2006 CAMBERLIN MARIKA SA CS VAL CENIS 38.72
36 FFS2672220 2007 ROUSSON JULIA SA STE FOY TSE 40.86
55 FFS2674677 2007 DELETTRE FLORE SA CO VAL THO 43.55
85 FFS2666984 2006 FALIES LEA SA VAL D'ISERE 36.91
86 FFS2680681 2007 BLAIS JULIETTE SA CS TOUSSUIRE 41.35
99 FFS2668319 2006 VAUCHE LOUISE SA VAL D'ISERE 45.88
101 FFS2678811 2007 GUILLAUME LILY MARIE SA SC MENUIRES 42.86
109 FFS2680211 2006 LELIEVRE SIBYLE SA SC CHAMBERY 37.73
Disqualifiés
1 FFS2673628 2007 HACQUARD LOLA SA VAL D'ISERE 39.80
2 FFS2682900 2007 DI EMANUELE CARLA SA ST FRANCOIS 39.97
11 FFS2681091 2006 AUBONNET LUNE SA US ROSIERE 38.48
12 FFS2671045 2007 FARRET LORINE SA SC CHAMBERY 42.50
46 FFS2675625 2006 HYVRARD ELISE SA SC MONTALBER 39.54
51 FFS2674643 2006 GOSTOLI OCEANE SA CS LA PLAGNE
56 FFS2673880 2006 LORIOT GUIDI PERRINE SA CS TIGNES
70 FFS2675386 2007 ROSKAM MATHILDE SA COURCHEVEL 40.04
72 FFS2677235 2007 TSERING SHERPA MAYA SA SC PRALOGNAN 38.69
73 FFS2673870 2006 BAUDE JAYA SA CS TIGNES
75 FFS2666861 2007 SIMOND MARGOT SA SC AILLONS 38.76
89 FFS2679296 2007 SAKURAI SOPHIA SA CS TIGNES
90 FFS2679294 2007 NAEDENEON CAPUCINE SA CS TIGNES 44.91
Non partants
23 FFS2678095 2007 DUBOUCHET CAMILLE SA ND BELLECOMB
68 FFS2682031 2007 MORAND MERMET MAELYS SA CS MTCHAVIN